sensor_id;sensor_type;location;lat;lon;timestamp;pressure;altitude;pressure_sealevel;temperature;humidity
43312;BME280;30041;48.300;16.352;2024-03-02T00:00:13;98965.22;;;23.58;42.72
43312;BME280;30041;48.300;16.352;2024-03-02T00:02:49;98969.53;;;23.59;42.93
43312;BME280;30041;48.300;16.352;2024-03-02T00:05:18;98967.38;;;23.61;42.72
43312;BME280;30041;48.300;16.352;2024-03-02T00:07:52;98973.59;;;23.61;43.04
43312;BME280;30041;48.300;16.352;2024-03-02T00:10:46;98968.97;;;23.62;42.93
43312;BME280;30041;48.300;16.352;2024-03-02T00:13:16;98974.41;;;23.62;42.80
43312;BME280;30041;48.300;16.352;2024-03-02T00:15:52;98970.63;;;23.63;42.94
43312;BME280;30041;48.300;16.352;2024-03-02T00:21:01;98970.63;;;23.63;42.67
43312;BME280;30041;48.300;16.352;2024-03-02T00:23:31;98967.91;;;23.63;42.93
43312;BME280;30041;48.300;16.352;2024-03-02T00:25:59;98964.41;;;23.62;42.96
43312;BME280;30041;48.300;16.352;2024-03-02T00:28:40;98965.22;;;23.63;42.97
43312;BME280;30041;48.300;16.352;2024-03-02T00:31:11;98969.81;;;23.62;42.77
43312;BME280;30041;48.300;16.352;2024-03-02T00:33:46;98968.72;;;23.63;42.83
43312;BME280;30041;48.300;16.352;2024-03-02T00:36:18;98958.72;;;23.64;42.65
43312;BME280;30041;48.300;16.352;2024-03-02T00:38:51;98961.41;;;23.64;42.89
43312;BME280;30041;48.300;16.352;2024-03-02T00:41:31;98959.25;;;23.66;42.75
43312;BME280;30041;48.300;16.352;2024-03-02T00:44:02;98958.44;;;23.66;42.45
43312;BME280;30041;48.300;16.352;2024-03-02T00:46:35;98949.53;;;23.65;42.92
43312;BME280;30041;48.300;16.352;2024-03-02T00:49:05;98950.34;;;23.66;42.57
43312;BME280;30041;48.300;16.352;2024-03-02T00:51:35;98952.25;;;23.65;42.87
43312;BME280;30041;48.300;16.352;2024-03-02T00:54:09;98947.63;;;23.66;42.70
43312;BME280;30041;48.300;16.352;2024-03-02T00:56:43;98951.97;;;23.67;42.88
43312;BME280;30041;48.300;16.352;2024-03-02T00:59:12;98957.09;;;23.68;42.60
43312;BME280;30041;48.300;16.352;2024-03-02T01:01:41;98950.63;;;23.69;42.59
43312;BME280;30041;48.300;16.352;2024-03-02T01:04:09;98948.72;;;23.70;42.72
43312;BME280;30041;48.300;16.352;2024-03-02T01:06:45;98946.81;;;23.70;42.29
43312;BME280;30041;48.300;16.352;2024-03-02T01:09:13;98951.97;;;23.72;42.68
43312;BME280;30041;48.300;16.352;2024-03-02T01:11:42;98947.38;;;23.72;42.71
43312;BME280;30041;48.300;16.352;2024-03-02T01:14:12;98946.31;;;23.73;42.70
43312;BME280;30041;48.300;16.352;2024-03-02T01:16:41;98949.00;;;23.73;42.24
43312;BME280;30041;48.300;16.352;2024-03-02T01:19:11;98950.63;;;23.74;42.69
43312;BME280;30041;48.300;16.352;2024-03-02T01:21:47;98953.31;;;23.74;42.30
43312;BME280;30041;48.300;16.352;2024-03-02T01:24:16;98948.50;;;23.76;42.33
43312;BME280;30041;48.300;16.352;2024-03-02T01:26:53;98944.69;;;23.77;42.62
43312;BME280;30041;48.300;16.352;2024-03-02T01:29:21;98950.09;;;23.77;42.37
43312;BME280;30041;48.300;16.352;2024-03-02T01:31:50;98956.34;;;23.78;42.45
43312;BME280;30041;48.300;16.352;2024-03-02T01:34:18;98950.94;;;23.78;42.49
43312;BME280;30041;48.300;16.352;2024-03-02T01:36:46;98950.09;;;23.77;42.25
43312;BME280;30041;48.300;16.352;2024-03-02T01:39:17;98951.75;;;23.78;42.49
43312;BME280;30041;48.300;16.352;2024-03-02T01:41:46;98957.97;;;23.79;42.53
43312;BME280;30041;48.300;16.352;2024-03-02T01:44:20;98956.59;;;23.81;42.29
43312;BME280;30041;48.300;16.352;2024-03-02T01:46:48;98945.78;;;23.81;42.33
43312;BME280;30041;48.300;16.352;2024-03-02T01:49:20;98941.47;;;23.80;42.21
43312;BME280;30041;48.300;16.352;2024-03-02T01:51:52;98954.44;;;23.83;42.42
43312;BME280;30041;48.300;16.352;2024-03-02T01:54:23;98950.66;;;23.85;42.04
43312;BME280;30041;48.300;16.352;2024-03-02T01:56:53;98943.63;;;23.83;42.28
43312;BME280;30041;48.300;16.352;2024-03-02T01:59:25;98942.56;;;23.85;42.39
43312;BME280;30041;48.300;16.352;2024-03-02T02:01:55;98938.75;;;23.86;42.32
43312;BME280;30041;48.300;16.352;2024-03-02T02:04:24;98941.47;;;23.86;42.23
43312;BME280;30041;48.300;16.352;2024-03-02T02:06:56;98931.19;;;23.88;42.25
43312;BME280;30041;48.300;16.352;2024-03-02T02:09:25;98930.38;;;23.87;42.40
43312;BME280;30041;48.300;16.352;2024-03-02T02:11:56;98923.06;;;23.88;42.12
43312;BME280;30041;48.300;16.352;2024-03-02T02:14:25;98927.38;;;23.89;42.29
43312;BME280;30041;48.300;16.352;2024-03-02T02:16:52;98926.56;;;23.88;42.13
43312;BME280;30041;48.300;16.352;2024-03-02T02:19:26;98931.19;;;23.88;42.35
43312;BME280;30041;48.300;16.352;2024-03-02T02:21:53;98923.59;;;23.90;42.18
43312;BME280;30041;48.300;16.352;2024-03-02T02:24:20;98923.59;;;23.90;42.12
43312;BME280;30041;48.300;16.352;2024-03-02T02:26:49;98920.91;;;23.90;42.21
43312;BME280;30041;48.300;16.352;2024-03-02T02:29:17;98920.63;;;23.91;42.28
43312;BME280;30041;48.300;16.352;2024-03-02T02:31:48;98926.56;;;23.93;42.09
43312;BME280;30041;48.300;16.352;2024-03-02T02:34:17;98916.84;;;23.92;41.86
43312;BME280;30041;48.300;16.352;2024-03-02T02:36:47;98906.81;;;23.93;42.09
43312;BME280;30041;48.300;16.352;2024-03-02T02:39:18;98904.91;;;23.93;41.95
43312;BME280;30041;48.300;16.352;2024-03-02T02:41:49;98901.13;;;23.94;41.76
43312;BME280;30041;48.300;16.352;2024-03-02T02:44:20;98901.41;;;23.93;42.16
43312;BME280;30041;48.300;16.352;2024-03-02T02:46:49;98905.75;;;23.94;42.15
43312;BME280;30041;48.300;16.352;2024-03-02T02:49:17;98913.56;;;23.95;42.24
43312;BME280;30041;48.300;16.352;2024-03-02T02:51:44;98909.00;;;23.96;41.84
43312;BME280;30041;48.300;16.352;2024-03-02T02:54:13;98912.50;;;23.96;42.07
43312;BME280;30041;48.300;16.352;2024-03-02T02:56:40;98915.22;;;23.96;42.18
43312;BME280;30041;48.300;16.352;2024-03-02T02:59:10;98912.50;;;23.96;41.92
43312;BME280;30041;48.300;16.352;2024-03-02T03:01:40;98902.47;;;23.97;41.86
43312;BME280;30041;48.300;16.352;2024-03-02T03:04:11;98898.72;;;23.98;41.84
43312;BME280;30041;48.300;16.352;2024-03-02T03:06:41;98897.88;;;23.97;42.10
43312;BME280;30041;48.300;16.352;2024-03-02T03:09:10;98900.59;;;23.97;42.10
43312;BME280;30041;48.300;16.352;2024-03-02T03:11:38;98891.41;;;23.98;41.91
43312;BME280;30041;48.300;16.352;2024-03-02T03:14:06;98898.41;;;23.99;41.78
43312;BME280;30041;48.300;16.352;2024-03-02T03:16:35;98896.53;;;24.00;42.03
43312;BME280;30041;48.300;16.352;2024-03-02T03:19:06;98901.94;;;24.00;42.11
43312;BME280;30041;48.300;16.352;2024-03-02T03:21:36;98908.97;;;24.01;41.92
43312;BME280;30041;48.300;16.352;2024-03-02T03:24:05;98907.34;;;24.00;41.77
43312;BME280;30041;48.300;16.352;2024-03-02T03:26:37;98911.69;;;24.01;41.95
43312;BME280;30041;48.300;16.352;2024-03-02T03:29:07;98907.88;;;24.02;41.96
43312;BME280;30041;48.300;16.352;2024-03-02T03:31:35;98909.53;;;24.03;41.83
43312;BME280;30041;48.300;16.352;2024-03-02T03:34:08;98915.75;;;24.03;41.74
43312;BME280;30041;48.300;16.352;2024-03-02T03:36:39;98917.66;;;24.03;41.63
43312;BME280;30041;48.300;16.352;2024-03-02T03:39:07;98916.84;;;24.02;41.78
43312;BME280;30041;48.300;16.352;2024-03-02T03:41:37;98916.53;;;24.04;41.73
43312;BME280;30041;48.300;16.352;2024-03-02T03:44:06;98913.84;;;24.04;41.86
43312;BME280;30041;48.300;16.352;2024-03-02T03:46:36;98911.97;;;24.05;41.86
43312;BME280;30041;48.300;16.352;2024-03-02T03:49:07;98912.78;;;24.05;41.93
43312;BME280;30041;48.300;16.352;2024-03-02T03:51:35;98916.28;;;24.06;41.87
43312;BME280;30041;48.300;16.352;2024-03-02T03:54:07;98917.09;;;24.06;41.85
43312;BME280;30041;48.300;16.352;2024-03-02T03:56:36;98920.59;;;24.07;41.83
43312;BME280;30041;48.300;16.352;2024-03-02T03:59:06;98917.63;;;24.08;41.53
43312;BME280;30041;48.300;16.352;2024-03-02T04:01:35;98914.13;;;24.08;41.51
43312;BME280;30041;48.300;16.352;2024-03-02T04:04:06;98919.53;;;24.08;41.79
43312;BME280;30041;48.300;16.352;2024-03-02T04:06:33;98921.16;;;24.09;41.55
43312;BME280;30041;48.300;16.352;2024-03-02T04:09:02;98923.84;;;24.09;41.72
43312;BME280;30041;48.300;16.352;2024-03-02T04:11:29;98913.03;;;24.09;41.58
43312;BME280;30041;48.300;16.352;2024-03-02T04:14:03;98916.28;;;24.11;41.54
43312;BME280;30041;48.300;16.352;2024-03-02T04:16:37;98911.97;;;24.10;41.56
43312;BME280;30041;48.300;16.352;2024-03-02T04:19:05;98912.75;;;24.10;41.58
43312;BME280;30041;48.300;16.352;2024-03-02T04:21:34;98912.75;;;24.10;41.66
43312;BME280;30041;48.300;16.352;2024-03-02T04:24:02;98920.88;;;24.10;41.63
43312;BME280;30041;48.300;16.352;2024-03-02T04:26:31;98928.75;;;24.12;41.58
43312;BME280;30041;48.300;16.352;2024-03-02T04:29:01;98929.81;;;24.11;41.63
43312;BME280;30041;48.300;16.352;2024-03-02T04:31:29;98933.31;;;24.11;41.54
43312;BME280;30041;48.300;16.352;2024-03-02T04:33:59;98930.34;;;24.13;41.79
43312;BME280;30041;48.300;16.352;2024-03-02T04:36:39;98934.97;;;24.12;41.49
43312;BME280;30041;48.300;16.352;2024-03-02T04:39:10;98932.00;;;24.14;41.63
43312;BME280;30041;48.300;16.352;2024-03-02T04:41:39;98943.06;;;24.12;41.66
43312;BME280;30041;48.300;16.352;2024-03-02T04:44:09;98934.97;;;24.12;41.52
43312;BME280;30041;48.300;16.352;2024-03-02T04:46:38;98942.81;;;24.14;41.71
43312;BME280;30041;48.300;16.352;2024-03-02T04:49:05;98948.22;;;24.14;41.30
43312;BME280;30041;48.300;16.352;2024-03-02T04:51:35;98940.91;;;24.14;41.49
43312;BME280;30041;48.300;16.352;2024-03-02T04:54:04;98948.22;;;24.14;41.63
43312;BME280;30041;48.300;16.352;2024-03-02T04:56:33;98954.44;;;24.14;41.75
43312;BME280;30041;48.300;16.352;2024-03-02T04:59:09;98962.56;;;24.14;41.52
43312;BME280;30041;48.300;16.352;2024-03-02T05:01:39;98968.78;;;24.15;41.64
43312;BME280;30041;48.300;16.352;2024-03-02T05:04:12;98966.88;;;24.15;41.75
43312;BME280;30041;48.300;16.352;2024-03-02T05:06:42;98965.81;;;24.16;41.48
43312;BME280;30041;48.300;16.352;2024-03-02T05:09:09;98964.72;;;24.17;41.43
43312;BME280;30041;48.300;16.352;2024-03-02T05:11:42;98969.06;;;24.18;41.40
43312;BME280;30041;48.300;16.352;2024-03-02T05:14:14;98966.38;;;24.18;41.43
43312;BME280;30041;48.300;16.352;2024-03-02T05:16:43;98965.28;;;24.19;41.15
43312;BME280;30041;48.300;16.352;2024-03-02T05:19:12;98969.88;;;24.19;41.50
43312;BME280;30041;48.300;16.352;2024-03-02T05:21:41;98976.34;;;24.18;41.62
43312;BME280;30041;48.300;16.352;2024-03-02T05:24:10;98982.63;;;24.18;41.27
43312;BME280;30041;48.300;16.352;2024-03-02T05:26:41;98982.63;;;24.18;41.63
43312;BME280;30041;48.300;16.352;2024-03-02T05:29:10;98979.91;;;24.18;41.54
43312;BME280;30041;48.300;16.352;2024-03-02T05:31:41;98987.19;;;24.18;41.55
43312;BME280;30041;48.300;16.352;2024-03-02T05:34:10;98981.78;;;24.18;41.41
43312;BME280;30041;48.300;16.352;2024-03-02T05:36:41;98979.63;;;24.20;41.37
43312;BME280;30041;48.300;16.352;2024-03-02T05:39:11;98979.63;;;24.20;41.68
43312;BME280;30041;48.300;16.352;2024-03-02T05:41:40;98986.94;;;24.19;41.26
43312;BME280;30041;48.300;16.352;2024-03-02T05:44:10;98988.56;;;24.20;41.27
43312;BME280;30041;48.300;16.352;2024-03-02T05:46:42;98981.25;;;24.21;41.27
43312;BME280;30041;48.300;16.352;2024-03-02T05:49:10;98982.59;;;24.23;41.56
43312;BME280;30041;48.300;16.352;2024-03-02T05:51:47;98984.75;;;24.21;41.20
43312;BME280;30041;48.300;16.352;2024-03-02T05:54:17;98982.88;;;24.22;41.41
43312;BME280;30041;48.300;16.352;2024-03-02T05:56:47;98989.13;;;24.22;41.38
43312;BME280;30041;48.300;16.352;2024-03-02T05:59:16;98994.53;;;24.22;41.14
43312;BME280;30041;48.300;16.352;2024-03-02T06:01:45;98987.72;;;24.20;41.59
43312;BME280;30041;48.300;16.352;2024-03-02T06:04:13;98998.84;;;24.18;41.19
43312;BME280;30041;48.300;16.352;2024-03-02T06:06:44;98999.91;;;24.17;41.63
43312;BME280;30041;48.300;16.352;2024-03-02T06:09:13;99009.94;;;24.17;41.47
43312;BME280;30041;48.300;16.352;2024-03-02T06:11:42;99009.69;;;24.18;41.68
43312;BME280;30041;48.300;16.352;2024-03-02T06:14:15;99012.66;;;24.17;41.64
43312;BME280;30041;48.300;16.352;2024-03-02T06:16:43;99017.81;;;24.18;41.60
43312;BME280;30041;48.300;16.352;2024-03-02T06:19:12;99012.94;;;24.20;41.60
43312;BME280;30041;48.300;16.352;2024-03-02T06:21:41;99011.28;;;24.19;41.38
43312;BME280;30041;48.300;16.352;2024-03-02T06:24:08;99011.28;;;24.19;41.74
43312;BME280;30041;48.300;16.352;2024-03-02T06:26:40;99007.78;;;24.19;41.73
43312;BME280;30041;48.300;16.352;2024-03-02T06:29:14;99005.06;;;24.19;41.43
43312;BME280;30041;48.300;16.352;2024-03-02T06:31:43;99007.53;;;24.20;41.77
43312;BME280;30041;48.300;16.352;2024-03-02T06:34:16;99001.00;;;24.21;41.50
43312;BME280;30041;48.300;16.352;2024-03-02T06:36:48;99002.66;;;24.22;41.38
43312;BME280;30041;48.300;16.352;2024-03-02T06:39:18;99003.72;;;24.21;41.73
43312;BME280;30041;48.300;16.352;2024-03-02T06:41:50;99011.84;;;24.21;41.24
43312;BME280;30041;48.300;16.352;2024-03-02T06:44:19;99002.91;;;24.21;41.45
43312;BME280;30041;48.300;16.352;2024-03-02T06:46:48;99005.34;;;24.22;41.49
43312;BME280;30041;48.300;16.352;2024-03-02T06:49:16;99007.78;;;24.24;41.46
43312;BME280;30041;48.300;16.352;2024-03-02T06:51:48;99006.16;;;24.23;41.42
43312;BME280;30041;48.300;16.352;2024-03-02T06:54:21;99007.78;;;24.24;41.44
43312;BME280;30041;48.300;16.352;2024-03-02T06:56:53;99005.88;;;24.24;41.52
43312;BME280;30041;48.300;16.352;2024-03-02T06:59:22;99004.81;;;24.26;41.46
43312;BME280;30041;48.300;16.352;2024-03-02T07:01:50;99015.63;;;24.26;41.59
43312;BME280;30041;48.300;16.352;2024-03-02T07:04:18;99018.09;;;24.27;41.51
43312;BME280;30041;48.300;16.352;2024-03-02T07:06:48;99018.88;;;24.28;41.64
43312;BME280;30041;48.300;16.352;2024-03-02T07:09:17;99022.66;;;24.27;41.58
43312;BME280;30041;48.300;16.352;2024-03-02T07:11:54;99017.78;;;24.29;41.24
43312;BME280;30041;48.300;16.352;2024-03-02T07:14:24;99017.78;;;24.29;41.68
43312;BME280;30041;48.300;16.352;2024-03-02T07:16:55;99012.38;;;24.29;41.28
43312;BME280;30041;48.300;16.352;2024-03-02T07:19:24;99015.91;;;24.29;41.47
43312;BME280;30041;48.300;16.352;2024-03-02T07:21:52;99018.34;;;24.31;41.56
43312;BME280;30041;48.300;16.352;2024-03-02T07:24:22;99012.13;;;24.30;41.34
43312;BME280;30041;48.300;16.352;2024-03-02T07:26:58;99007.50;;;24.31;41.21
43312;BME280;30041;48.300;16.352;2024-03-02T07:29:29;99012.13;;;24.30;41.48
43312;BME280;30041;48.300;16.352;2024-03-02T07:31:58;99014.81;;;24.30;41.25
43312;BME280;30041;48.300;16.352;2024-03-02T07:34:25;99017.28;;;24.32;41.45
43312;BME280;30041;48.300;16.352;2024-03-02T07:37:00;99019.97;;;24.32;41.48
43312;BME280;30041;48.300;16.352;2024-03-02T07:39:31;99025.38;;;24.32;41.58
43312;BME280;30041;48.300;16.352;2024-03-02T07:42:01;99031.63;;;24.32;41.49
43312;BME280;30041;48.300;16.352;2024-03-02T07:44:30;99037.84;;;24.33;41.53
43312;BME280;30041;48.300;16.352;2024-03-02T07:46:58;99037.84;;;24.33;41.42
43312;BME280;30041;48.300;16.352;2024-03-02T07:49:33;99041.34;;;24.33;41.27
43312;BME280;30041;48.300;16.352;2024-03-02T07:52:02;99044.91;;;24.34;41.60
43312;BME280;30041;48.300;16.352;2024-03-02T07:54:31;99044.06;;;24.33;41.35
43312;BME280;30041;48.300;16.352;2024-03-02T07:57:04;99043.00;;;24.34;41.15
43312;BME280;30041;48.300;16.352;2024-03-02T07:59:33;99039.75;;;24.32;41.27
43312;BME280;30041;48.300;16.352;2024-03-02T08:02:11;99044.91;;;24.34;41.42
43312;BME280;30041;48.300;16.352;2024-03-02T08:04:40;99048.66;;;24.33;41.31
43312;BME280;30041;48.300;16.352;2024-03-02T08:07:10;99039.47;;;24.34;41.28
43312;BME280;30041;48.300;16.352;2024-03-02T08:09:43;99043.78;;;24.35;41.59
43312;BME280;30041;48.300;16.352;2024-03-02T08:12:10;99049.47;;;24.33;41.64
43312;BME280;30041;48.300;16.352;2024-03-02T08:14:39;99051.91;;;24.35;41.19
43312;BME280;30041;48.300;16.352;2024-03-02T08:17:11;99047.31;;;24.35;41.29
43312;BME280;30041;48.300;16.352;2024-03-02T08:19:39;99045.44;;;24.36;41.42
43312;BME280;30041;48.300;16.352;2024-03-02T08:22:10;99044.34;;;24.37;41.38
43312;BME280;30041;48.300;16.352;2024-03-02T08:24:38;99043.53;;;24.36;41.50
43312;BME280;30041;48.300;16.352;2024-03-02T08:27:09;99043.53;;;24.36;41.30
43312;BME280;30041;48.300;16.352;2024-03-02T08:29:36;99045.44;;;24.36;41.49
43312;BME280;30041;48.300;16.352;2024-03-02T08:32:05;99043.78;;;24.35;41.38
43312;BME280;30041;48.300;16.352;2024-03-02T08:34:47;99047.03;;;24.37;41.35
43312;BME280;30041;48.300;16.352;2024-03-02T08:37:14;99041.09;;;24.35;41.59
43312;BME280;30041;48.300;16.352;2024-03-02T08:39:45;99042.72;;;24.36;41.43
43312;BME280;30041;48.300;16.352;2024-03-02T08:42:20;99040.81;;;24.36;41.40
43312;BME280;30041;48.300;16.352;2024-03-02T08:44:49;99041.63;;;24.37;41.45
43312;BME280;30041;48.300;16.352;2024-03-02T08:47:19;99035.13;;;24.38;41.16
43312;BME280;30041;48.300;16.352;2024-03-02T08:49:48;99039.47;;;24.39;41.43
43312;BME280;30041;48.300;16.352;2024-03-02T08:52:23;99035.13;;;24.38;41.36
43312;BME280;30041;48.300;16.352;2024-03-02T08:54:53;99040.53;;;24.38;41.46
43312;BME280;30041;48.300;16.352;2024-03-02T08:57:22;99035.13;;;24.38;41.42
43312;BME280;30041;48.300;16.352;2024-03-02T08:59:51;99036.75;;;24.39;41.39
43312;BME280;30041;48.300;16.352;2024-03-02T09:02:18;99038.66;;;24.38;41.61
43312;BME280;30041;48.300;16.352;2024-03-02T09:04:45;99038.66;;;24.38;41.48
43312;BME280;30041;48.300;16.352;2024-03-02T09:07:14;99038.66;;;24.38;41.28
43312;BME280;30041;48.300;16.352;2024-03-02T09:09:42;99040.28;;;24.39;41.36
43312;BME280;30041;48.300;16.352;2024-03-02T09:12:19;99037.31;;;24.41;41.51
43312;BME280;30041;48.300;16.352;2024-03-02T09:14:47;99038.38;;;24.40;41.17
43312;BME280;30041;48.300;16.352;2024-03-02T09:17:17;99032.94;;;24.40;41.47
43312;BME280;30041;48.300;16.352;2024-03-02T09:19:43;99040.00;;;24.41;41.14
43312;BME280;30041;48.300;16.352;2024-03-02T09:22:11;99040.81;;;24.41;41.36
43312;BME280;30041;48.300;16.352;2024-03-02T09:24:41;99032.69;;;24.41;41.21
43312;BME280;30041;48.300;16.352;2024-03-02T09:27:11;99038.91;;;24.42;41.48
43312;BME280;30041;48.300;16.352;2024-03-02T09:29:41;99034.31;;;24.42;41.27
43312;BME280;30041;48.300;16.352;2024-03-02T09:32:16;99041.63;;;24.42;41.13
43312;BME280;30041;48.300;16.352;2024-03-02T09:34:45;99039.97;;;23.85;40.79
43312;BME280;30041;48.300;16.352;2024-03-02T09:37:15;99035.50;;;23.42;42.13
43312;BME280;30041;48.300;16.352;2024-03-02T09:39:45;99033.22;;;23.24;42.67
43312;BME280;30041;48.300;16.352;2024-03-02T09:42:21;99037.56;;;23.25;41.86
43312;BME280;30041;48.300;16.352;2024-03-02T09:44:51;99024.28;;;23.13;42.11
43312;BME280;30041;48.300;16.352;2024-03-02T09:47:22;99033.28;;;23.29;42.35
43312;BME280;30041;48.300;16.352;2024-03-02T09:49:50;99031.13;;;23.36;42.23
43312;BME280;30041;48.300;16.352;2024-03-02T09:52:22;99027.34;;;23.37;42.15
43312;BME280;30041;48.300;16.352;2024-03-02T09:54:50;99031.94;;;23.37;42.32
43312;BME280;30041;48.300;16.352;2024-03-02T09:57:18;99032.22;;;23.40;42.40
43312;BME280;30041;48.300;16.352;2024-03-02T09:59:46;99029.78;;;23.39;42.70
43312;BME280;30041;48.300;16.352;2024-03-02T10:02:18;99023.81;;;23.37;42.58
43312;BME280;30041;48.300;16.352;2024-03-02T10:04:49;99016.56;;;23.42;42.76
43312;BME280;30041;48.300;16.352;2024-03-02T10:07:19;99016.81;;;23.46;42.41
43312;BME280;30041;48.300;16.352;2024-03-02T10:09:49;99027.34;;;23.37;42.71
43312;BME280;30041;48.300;16.352;2024-03-02T10:12:18;99022.16;;;23.26;43.47
43312;BME280;30041;48.300;16.352;2024-03-02T10:15:02;99021.34;;;23.25;43.40
43312;BME280;30041;48.300;16.352;2024-03-02T10:17:34;99019.69;;;23.19;43.52
43312;BME280;30041;48.300;16.352;2024-03-02T10:20:21;99020.25;;;23.16;43.61
43312;BME280;30041;48.300;16.352;2024-03-02T10:22:47;99020.22;;;23.11;43.77
43312;BME280;30041;48.300;16.352;2024-03-02T10:25:33;99019.94;;;23.12;43.74
43312;BME280;30041;48.300;16.352;2024-03-02T10:28:02;99021.28;;;23.10;43.79
43312;BME280;30041;48.300;16.352;2024-03-02T10:30:32;99024.25;;;23.08;44.40
43312;BME280;30041;48.300;16.352;2024-03-02T10:33:06;99021.81;;;23.07;44.50
43312;BME280;30041;48.300;16.352;2024-03-02T10:35:35;99018.28;;;23.06;44.25
43312;BME280;30041;48.300;16.352;2024-03-02T10:38:08;99013.97;;;23.05;44.67
43312;BME280;30041;48.300;16.352;2024-03-02T10:40:41;99013.16;;;23.05;44.66
43312;BME280;30041;48.300;16.352;2024-03-02T10:43:18;99018.28;;;23.06;44.39
43312;BME280;30041;48.300;16.352;2024-03-02T10:45:49;99014.28;;;23.14;44.48
43312;BME280;30041;48.300;16.352;2024-03-02T10:48:21;99009.44;;;23.16;44.31
43312;BME280;30041;48.300;16.352;2024-03-02T10:50:49;99012.13;;;23.16;44.65
43312;BME280;30041;48.300;16.352;2024-03-02T10:53:20;99008.03;;;23.08;42.86
43312;BME280;30041;48.300;16.352;2024-03-02T10:55:58;99009.66;;;23.09;44.05
43312;BME280;30041;48.300;16.352;2024-03-02T10:58:31;99006.44;;;23.17;44.17
43312;BME280;30041;48.300;16.352;2024-03-02T11:01:04;99006.47;;;23.23;43.92
43312;BME280;30041;48.300;16.352;2024-03-02T11:03:35;99006.19;;;23.24;43.96
43312;BME280;30041;48.300;16.352;2024-03-02T11:06:14;99008.88;;;23.14;44.43
43312;BME280;30041;48.300;16.352;2024-03-02T11:08:47;99002.31;;;22.99;44.65
43312;BME280;30041;48.300;16.352;2024-03-02T11:11:23;99006.31;;;22.92;44.68
43312;BME280;30041;48.300;16.352;2024-03-02T11:14:01;99001.13;;;22.85;44.58
43312;BME280;30041;48.300;16.352;2024-03-02T11:16:46;98990.31;;;22.80;44.58
43312;BME280;30041;48.300;16.352;2024-03-02T11:19:18;99004.41;;;22.92;44.03
43312;BME280;30041;48.300;16.352;2024-03-02T11:21:48;98998.56;;;23.06;43.07
43312;BME280;30041;48.300;16.352;2024-03-02T11:27:04;98998.88;;;23.19;43.06
43312;BME280;30041;48.300;16.352;2024-03-02T11:32:17;98995.31;;;23.04;42.68
43312;BME280;30041;48.300;16.352;2024-03-02T11:34:49;99005.13;;;23.20;42.23
43312;BME280;30041;48.300;16.352;2024-03-02T11:37:21;99000.53;;;23.20;42.63
43312;BME280;30041;48.300;16.352;2024-03-02T11:39:50;99002.09;;;23.11;43.09
43312;BME280;30041;48.300;16.352;2024-03-02T11:42:25;99003.69;;;23.02;43.11
43312;BME280;30041;48.300;16.352;2024-03-02T11:44:56;99004.69;;;22.91;43.91
43312;BME280;30041;48.300;16.352;2024-03-02T11:47:31;98995.78;;;22.95;43.76
43312;BME280;30041;48.300;16.352;2024-03-02T11:50:04;98995.50;;;22.92;44.17
43312;BME280;30041;48.300;16.352;2024-03-02T11:52:33;98995.06;;;23.10;43.69
43312;BME280;30041;48.300;16.352;2024-03-02T11:55:06;98999.41;;;23.16;43.52
43312;BME280;30041;48.300;16.352;2024-03-02T11:57:36;98997.00;;;23.20;43.42
43312;BME280;30041;48.300;16.352;2024-03-02T12:00:06;99001.88;;;23.23;43.47
43312;BME280;30041;48.300;16.352;2024-03-02T12:03:12;98999.47;;;23.27;43.29
43312;BME280;30041;48.300;16.352;2024-03-02T12:05:49;99008.91;;;23.24;43.61
43312;BME280;30041;48.300;16.352;2024-03-02T12:08:18;99011.34;;;23.26;43.63
43312;BME280;30041;48.300;16.352;2024-03-02T12:11:00;99006.41;;;23.12;44.12
43312;BME280;30041;48.300;16.352;2024-03-02T12:13:38;99014.44;;;22.97;44.39
43312;BME280;30041;48.300;16.352;2024-03-02T12:16:08;99009.31;;;22.95;44.16
43312;BME280;30041;48.300;16.352;2024-03-02T12:18:42;99010.09;;;22.96;44.13
43312;BME280;30041;48.300;16.352;2024-03-02T12:21:10;99009.09;;;23.02;44.29
43312;BME280;30041;48.300;16.352;2024-03-02T12:23:44;99007.47;;;23.06;44.12
43312;BME280;30041;48.300;16.352;2024-03-02T12:26:17;99005.59;;;23.07;44.05
43312;BME280;30041;48.300;16.352;2024-03-02T12:28:47;99008.31;;;23.07;43.97
43312;BME280;30041;48.300;16.352;2024-03-02T12:31:19;99010.16;;;23.06;44.13
43312;BME280;30041;48.300;16.352;2024-03-02T12:33:51;99010.16;;;23.01;44.25
43312;BME280;30041;48.300;16.352;2024-03-02T12:36:19;99008.81;;;23.04;43.97
43312;BME280;30041;48.300;16.352;2024-03-02T12:38:54;99012.63;;;23.13;43.89
43312;BME280;30041;48.300;16.352;2024-03-02T12:41:23;99009.19;;;23.23;43.55
43312;BME280;30041;48.300;16.352;2024-03-02T12:43:57;99008.09;;;23.24;43.81
43312;BME280;30041;48.300;16.352;2024-03-02T12:46:31;99001.56;;;23.14;43.52
43312;BME280;30041;48.300;16.352;2024-03-02T12:49:12;99005.84;;;23.05;43.89
43312;BME280;30041;48.300;16.352;2024-03-02T12:51:42;98999.84;;;22.98;44.24
43312;BME280;30041;48.300;16.352;2024-03-02T12:54:16;98981.97;;;22.92;44.17
43312;BME280;30041;48.300;16.352;2024-03-02T12:56:50;98995.47;;;22.87;44.24
43312;BME280;30041;48.300;16.352;2024-03-02T12:59:23;98991.69;;;22.88;44.21
43312;BME280;30041;48.300;16.352;2024-03-02T13:02:01;98995.19;;;22.88;44.26
43312;BME280;30041;48.300;16.352;2024-03-02T13:04:32;98993.31;;;22.89;44.41
43312;BME280;30041;48.300;16.352;2024-03-02T13:07:07;98986.28;;;22.88;44.49
43312;BME280;30041;48.300;16.352;2024-03-02T13:09:39;98986.53;;;22.86;44.76
43312;BME280;30041;48.300;16.352;2024-03-02T13:12:07;98984.66;;;22.87;44.74
43312;BME280;30041;48.300;16.352;2024-03-02T13:14:47;98988.44;;;22.86;44.78
43312;BME280;30041;48.300;16.352;2024-03-02T13:17:18;98990.31;;;22.85;44.82